Prospector, Canada
Current Conditions -  °F | °C
As of 2:00 AM on Thursday 27 Nov 2014 (Local Time) from CYQD Reporting Station
Clear Clear  
Wind Chill: -31°   Ceiling: Unl
Heat Index: -17°   Visibility: 15mi
Dew Point: -22°   Wind: 6mph
Humidity: 76%   Direction: 180°S
Pressure: 30.34"   Gusts: NA
Location:  52.95°N, 101.27°W
Report Text: CYQD 270800Z 18005KT 15SM SKC M27/M30 A3034 RMK SLP310
Loading
Personal Weather Stations






























Interactive Weather Map New forecast layout! Learn more

10-Day Weather Forecast

Advertisements
Track Severe Weather on mobile